sensor_id;sensor_type;location;lat;lon;timestamp;temperature;humidity
9311;DHT22;4694;52.464;13.480;2023-07-13T00:01:35;19.90;99.90
9311;DHT22;4694;52.464;13.480;2023-07-13T00:04:04;19.80;99.90
9311;DHT22;4694;52.464;13.480;2023-07-13T00:06:31;19.80;99.90
9311;DHT22;4694;52.464;13.480;2023-07-13T00:08:58;19.80;99.90
9311;DHT22;4694;52.464;13.480;2023-07-13T00:11:25;19.70;99.90
9311;DHT22;4694;52.464;13.480;2023-07-13T00:13:52;19.70;99.90
9311;DHT22;4694;52.464;13.480;2023-07-13T00:16:20;19.70;99.90
9311;DHT22;4694;52.464;13.480;2023-07-13T00:18:47;19.70;99.90
9311;DHT22;4694;52.464;13.480;2023-07-13T00:21:14;19.70;99.90
9311;DHT22;4694;52.464;13.480;2023-07-13T00:23:42;19.80;99.90
9311;DHT22;4694;52.464;13.480;2023-07-13T00:26:10;19.80;99.90
9311;DHT22;4694;52.464;13.480;2023-07-13T00:28:38;19.80;99.90
9311;DHT22;4694;52.464;13.480;2023-07-13T00:31:05;19.70;99.90
9311;DHT22;4694;52.464;13.480;2023-07-13T00:33:33;19.70;99.90
9311;DHT22;4694;52.464;13.480;2023-07-13T00:35:59;19.70;99.90
9311;DHT22;4694;52.464;13.480;2023-07-13T00:38:26;19.70;99.90
9311;DHT22;4694;52.464;13.480;2023-07-13T00:40:52;19.70;99.90
9311;DHT22;4694;52.464;13.480;2023-07-13T00:43:21;19.70;99.90
9311;DHT22;4694;52.464;13.480;2023-07-13T00:46:15;19.60;99.90
9311;DHT22;4694;52.464;13.480;2023-07-13T00:48:46;19.60;99.90
9311;DHT22;4694;52.464;13.480;2023-07-13T00:51:14;19.50;99.90
9311;DHT22;4694;52.464;13.480;2023-07-13T00:53:42;19.50;99.90
9311;DHT22;4694;52.464;13.480;2023-07-13T00:56:09;19.50;99.90
9311;DHT22;4694;52.464;13.480;2023-07-13T00:58:36;19.40;99.90
9311;DHT22;4694;52.464;13.480;2023-07-13T01:01:03;19.40;99.90
9311;DHT22;4694;52.464;13.480;2023-07-13T01:03:29;19.30;99.90
9311;DHT22;4694;52.464;13.480;2023-07-13T01:05:57;19.20;99.90
9311;DHT22;4694;52.464;13.480;2023-07-13T01:08:24;19.10;99.90
9311;DHT22;4694;52.464;13.480;2023-07-13T01:10:52;19.10;99.90
9311;DHT22;4694;52.464;13.480;2023-07-13T01:13:19;19.00;99.90
9311;DHT22;4694;52.464;13.480;2023-07-13T01:15:47;19.00;99.90
9311;DHT22;4694;52.464;13.480;2023-07-13T01:18:18;18.90;99.90
9311;DHT22;4694;52.464;13.480;2023-07-13T01:20:53;18.80;99.90
9311;DHT22;4694;52.464;13.480;2023-07-13T01:23:20;18.70;99.90
9311;DHT22;4694;52.464;13.480;2023-07-13T01:25:48;18.70;99.90
9311;DHT22;4694;52.464;13.480;2023-07-13T01:28:14;18.80;99.90
9311;DHT22;4694;52.464;13.480;2023-07-13T01:30:43;18.60;99.90
9311;DHT22;4694;52.464;13.480;2023-07-13T01:33:12;18.60;99.90
9311;DHT22;4694;52.464;13.480;2023-07-13T01:35:39;18.50;99.90
9311;DHT22;4694;52.464;13.480;2023-07-13T01:38:08;18.40;99.90
9311;DHT22;4694;52.464;13.480;2023-07-13T01:40:36;18.30;99.90
9311;DHT22;4694;52.464;13.480;2023-07-13T01:43:03;18.30;99.90
9311;DHT22;4694;52.464;13.480;2023-07-13T01:45:30;18.20;99.90
9311;DHT22;4694;52.464;13.480;2023-07-13T01:47:56;18.20;99.90
9311;DHT22;4694;52.464;13.480;2023-07-13T01:50:24;18.20;99.90
9311;DHT22;4694;52.464;13.480;2023-07-13T01:52:51;18.20;99.90
9311;DHT22;4694;52.464;13.480;2023-07-13T01:55:19;18.10;99.90
9311;DHT22;4694;52.464;13.480;2023-07-13T01:57:46;18.10;99.90
9311;DHT22;4694;52.464;13.480;2023-07-13T02:00:14;18.10;99.90
9311;DHT22;4694;52.464;13.480;2023-07-13T02:02:41;18.10;99.90
9311;DHT22;4694;52.464;13.480;2023-07-13T02:05:08;18.10;99.90
9311;DHT22;4694;52.464;13.480;2023-07-13T02:07:34;18.00;99.90
9311;DHT22;4694;52.464;13.480;2023-07-13T02:10:01;18.00;99.90
9311;DHT22;4694;52.464;13.480;2023-07-13T02:12:29;18.00;99.90
9311;DHT22;4694;52.464;13.480;2023-07-13T02:14:55;18.00;99.90
9311;DHT22;4694;52.464;13.480;2023-07-13T02:17:22;17.90;99.90
9311;DHT22;4694;52.464;13.480;2023-07-13T02:19:49;17.90;99.90
9311;DHT22;4694;52.464;13.480;2023-07-13T02:22:15;17.80;99.90
9311;DHT22;4694;52.464;13.480;2023-07-13T02:24:42;17.80;99.90
9311;DHT22;4694;52.464;13.480;2023-07-13T02:27:08;17.70;99.90
9311;DHT22;4694;52.464;13.480;2023-07-13T02:29:36;17.70;99.90
9311;DHT22;4694;52.464;13.480;2023-07-13T02:32:04;17.70;99.90
9311;DHT22;4694;52.464;13.480;2023-07-13T02:34:30;17.60;99.90
9311;DHT22;4694;52.464;13.480;2023-07-13T02:36:57;17.50;99.90
9311;DHT22;4694;52.464;13.480;2023-07-13T02:39:24;17.50;99.90
9311;DHT22;4694;52.464;13.480;2023-07-13T02:41:50;17.50;99.90
9311;DHT22;4694;52.464;13.480;2023-07-13T02:44:17;17.40;99.90
9311;DHT22;4694;52.464;13.480;2023-07-13T02:46:45;17.40;99.90
9311;DHT22;4694;52.464;13.480;2023-07-13T02:49:11;17.30;99.90
9311;DHT22;4694;52.464;13.480;2023-07-13T02:51:38;17.40;99.90
9311;DHT22;4694;52.464;13.480;2023-07-13T02:54:05;17.30;99.90
9311;DHT22;4694;52.464;13.480;2023-07-13T02:56:33;17.30;99.90
9311;DHT22;4694;52.464;13.480;2023-07-13T02:59:00;17.30;99.90
9311;DHT22;4694;52.464;13.480;2023-07-13T03:01:28;17.20;99.90
9311;DHT22;4694;52.464;13.480;2023-07-13T03:03:56;17.20;99.90
9311;DHT22;4694;52.464;13.480;2023-07-13T03:06:22;17.10;99.90
9311;DHT22;4694;52.464;13.480;2023-07-13T03:08:50;17.10;99.90
9311;DHT22;4694;52.464;13.480;2023-07-13T03:11:19;17.10;99.90
9311;DHT22;4694;52.464;13.480;2023-07-13T03:13:46;17.10;99.90
9311;DHT22;4694;52.464;13.480;2023-07-13T03:16:14;17.00;99.90
9311;DHT22;4694;52.464;13.480;2023-07-13T03:18:42;17.10;99.90
9311;DHT22;4694;52.464;13.480;2023-07-13T03:21:10;17.10;99.90
9311;DHT22;4694;52.464;13.480;2023-07-13T03:23:36;17.10;99.90
9311;DHT22;4694;52.464;13.480;2023-07-13T03:26:05;17.20;99.90
9311;DHT22;4694;52.464;13.480;2023-07-13T03:28:32;17.30;99.90
9311;DHT22;4694;52.464;13.480;2023-07-13T03:31:00;17.30;99.90
9311;DHT22;4694;52.464;13.480;2023-07-13T03:33:27;17.40;99.90
9311;DHT22;4694;52.464;13.480;2023-07-13T03:35:54;17.50;99.90
9311;DHT22;4694;52.464;13.480;2023-07-13T03:38:22;17.50;99.90
9311;DHT22;4694;52.464;13.480;2023-07-13T03:40:49;17.60;99.90
9311;DHT22;4694;52.464;13.480;2023-07-13T03:43:15;17.60;99.90
9311;DHT22;4694;52.464;13.480;2023-07-13T03:45:42;17.60;99.90
9311;DHT22;4694;52.464;13.480;2023-07-13T03:48:09;17.70;99.90
9311;DHT22;4694;52.464;13.480;2023-07-13T03:50:35;17.70;99.90
9311;DHT22;4694;52.464;13.480;2023-07-13T03:53:02;17.80;99.90
9311;DHT22;4694;52.464;13.480;2023-07-13T03:55:30;17.80;99.90
9311;DHT22;4694;52.464;13.480;2023-07-13T03:57:59;17.90;99.90
9311;DHT22;4694;52.464;13.480;2023-07-13T04:00:26;17.90;99.90
9311;DHT22;4694;52.464;13.480;2023-07-13T04:02:52;18.00;99.90
9311;DHT22;4694;52.464;13.480;2023-07-13T04:05:19;18.10;99.90
9311;DHT22;4694;52.464;13.480;2023-07-13T04:07:45;18.20;99.90
9311;DHT22;4694;52.464;13.480;2023-07-13T04:10:12;18.20;99.90
9311;DHT22;4694;52.464;13.480;2023-07-13T04:12:40;18.30;99.90
9311;DHT22;4694;52.464;13.480;2023-07-13T04:15:08;18.30;99.90
9311;DHT22;4694;52.464;13.480;2023-07-13T04:17:34;18.40;99.90
9311;DHT22;4694;52.464;13.480;2023-07-13T04:20:01;18.40;99.90
9311;DHT22;4694;52.464;13.480;2023-07-13T04:22:29;18.50;99.90
9311;DHT22;4694;52.464;13.480;2023-07-13T04:24:56;18.60;99.90
9311;DHT22;4694;52.464;13.480;2023-07-13T04:27:22;18.60;99.90
9311;DHT22;4694;52.464;13.480;2023-07-13T04:29:50;18.70;99.90
9311;DHT22;4694;52.464;13.480;2023-07-13T04:32:17;18.80;99.90
9311;DHT22;4694;52.464;13.480;2023-07-13T04:34:43;18.80;99.90
9311;DHT22;4694;52.464;13.480;2023-07-13T04:37:10;18.90;99.90
9311;DHT22;4694;52.464;13.480;2023-07-13T04:39:37;19.00;99.90
9311;DHT22;4694;52.464;13.480;2023-07-13T04:42:04;19.00;99.90
9311;DHT22;4694;52.464;13.480;2023-07-13T04:44:30;19.10;99.90
9311;DHT22;4694;52.464;13.480;2023-07-13T04:46:58;19.10;99.90
9311;DHT22;4694;52.464;13.480;2023-07-13T04:49:25;19.20;99.90
9311;DHT22;4694;52.464;13.480;2023-07-13T04:51:51;19.30;99.90
9311;DHT22;4694;52.464;13.480;2023-07-13T04:54:20;19.30;99.90
9311;DHT22;4694;52.464;13.480;2023-07-13T04:56:47;19.40;99.90
9311;DHT22;4694;52.464;13.480;2023-07-13T04:59:13;19.40;99.90
9311;DHT22;4694;52.464;13.480;2023-07-13T05:01:40;19.50;99.90
9311;DHT22;4694;52.464;13.480;2023-07-13T05:04:08;19.50;99.90
9311;DHT22;4694;52.464;13.480;2023-07-13T05:06:34;19.50;99.90
9311;DHT22;4694;52.464;13.480;2023-07-13T05:09:01;19.70;99.90
9311;DHT22;4694;52.464;13.480;2023-07-13T05:11:28;19.70;99.90
9311;DHT22;4694;52.464;13.480;2023-07-13T05:13:55;19.90;99.90
9311;DHT22;4694;52.464;13.480;2023-07-13T05:16:21;19.90;99.90
9311;DHT22;4694;52.464;13.480;2023-07-13T05:18:49;20.00;99.90
9311;DHT22;4694;52.464;13.480;2023-07-13T05:21:17;20.10;99.90
9311;DHT22;4694;52.464;13.480;2023-07-13T05:23:43;20.10;99.90
9311;DHT22;4694;52.464;13.480;2023-07-13T05:26:10;20.50;99.90
9311;DHT22;4694;52.464;13.480;2023-07-13T05:28:37;20.90;99.90
9311;DHT22;4694;52.464;13.480;2023-07-13T05:31:04;21.00;99.90
9311;DHT22;4694;52.464;13.480;2023-07-13T05:33:31;20.90;99.90
9311;DHT22;4694;52.464;13.480;2023-07-13T05:35:58;20.80;99.90
9311;DHT22;4694;52.464;13.480;2023-07-13T05:38:27;20.70;99.90
9311;DHT22;4694;52.464;13.480;2023-07-13T05:40:57;20.70;99.90
9311;DHT22;4694;52.464;13.480;2023-07-13T05:43:24;20.70;99.90
9311;DHT22;4694;52.464;13.480;2023-07-13T05:45:52;20.80;99.90
9311;DHT22;4694;52.464;13.480;2023-07-13T05:48:19;20.90;99.90
9311;DHT22;4694;52.464;13.480;2023-07-13T05:50:46;20.90;99.90
9311;DHT22;4694;52.464;13.480;2023-07-13T05:53:13;21.00;99.90
9311;DHT22;4694;52.464;13.480;2023-07-13T05:55:42;21.00;99.90
9311;DHT22;4694;52.464;13.480;2023-07-13T05:58:12;21.40;99.90
9311;DHT22;4694;52.464;13.480;2023-07-13T06:00:38;21.70;99.90
9311;DHT22;4694;52.464;13.480;2023-07-13T06:03:05;21.90;99.90
9311;DHT22;4694;52.464;13.480;2023-07-13T06:05:32;21.80;99.90
9311;DHT22;4694;52.464;13.480;2023-07-13T06:07:59;21.70;99.90
9311;DHT22;4694;52.464;13.480;2023-07-13T06:10:26;21.70;99.90
9311;DHT22;4694;52.464;13.480;2023-07-13T06:12:54;21.60;99.90
9311;DHT22;4694;52.464;13.480;2023-07-13T06:15:21;21.70;99.90
9311;DHT22;4694;52.464;13.480;2023-07-13T06:17:47;21.70;99.90
9311;DHT22;4694;52.464;13.480;2023-07-13T06:20:14;21.90;99.90
9311;DHT22;4694;52.464;13.480;2023-07-13T06:22:41;22.20;99.90
9311;DHT22;4694;52.464;13.480;2023-07-13T06:25:08;22.60;99.90
9311;DHT22;4694;52.464;13.480;2023-07-13T06:27:35;22.70;99.90
9311;DHT22;4694;52.464;13.480;2023-07-13T06:30:03;22.80;99.90
9311;DHT22;4694;52.464;13.480;2023-07-13T06:32:30;22.70;99.90
9311;DHT22;4694;52.464;13.480;2023-07-13T06:34:57;22.80;99.90
9311;DHT22;4694;52.464;13.480;2023-07-13T06:37:23;23.00;99.90
9311;DHT22;4694;52.464;13.480;2023-07-13T06:39:50;23.10;99.90
9311;DHT22;4694;52.464;13.480;2023-07-13T06:42:17;23.10;99.90
9311;DHT22;4694;52.464;13.480;2023-07-13T06:44:43;23.30;99.90
9311;DHT22;4694;52.464;13.480;2023-07-13T06:47:12;23.40;99.90
9311;DHT22;4694;52.464;13.480;2023-07-13T06:49:38;23.60;99.90
9311;DHT22;4694;52.464;13.480;2023-07-13T06:52:06;23.80;99.90
9311;DHT22;4694;52.464;13.480;2023-07-13T06:54:32;23.90;99.90
9311;DHT22;4694;52.464;13.480;2023-07-13T06:57:00;24.10;99.90
9311;DHT22;4694;52.464;13.480;2023-07-13T06:59:27;24.40;99.90
9311;DHT22;4694;52.464;13.480;2023-07-13T07:01:53;24.50;99.90
9311;DHT22;4694;52.464;13.480;2023-07-13T07:04:21;24.60;99.90
9311;DHT22;4694;52.464;13.480;2023-07-13T07:06:48;24.60;99.90
9311;DHT22;4694;52.464;13.480;2023-07-13T07:09:14;24.60;99.90
9311;DHT22;4694;52.464;13.480;2023-07-13T07:11:41;24.80;99.90
9311;DHT22;4694;52.464;13.480;2023-07-13T07:14:08;25.10;99.90
9311;DHT22;4694;52.464;13.480;2023-07-13T07:16:35;25.40;99.90
9311;DHT22;4694;52.464;13.480;2023-07-13T07:19:02;25.60;99.50
9311;DHT22;4694;52.464;13.480;2023-07-13T07:21:30;25.50;99.00
9311;DHT22;4694;52.464;13.480;2023-07-13T07:23:56;25.70;98.80
9311;DHT22;4694;52.464;13.480;2023-07-13T07:26:25;25.80;98.20
9311;DHT22;4694;52.464;13.480;2023-07-13T07:28:51;25.70;97.60
9311;DHT22;4694;52.464;13.480;2023-07-13T07:31:18;25.60;97.40
9311;DHT22;4694;52.464;13.480;2023-07-13T07:33:44;25.70;97.40
9311;DHT22;4694;52.464;13.480;2023-07-13T07:36:11;26.00;96.60
9311;DHT22;4694;52.464;13.480;2023-07-13T07:38:39;26.30;96.30
9311;DHT22;4694;52.464;13.480;2023-07-13T07:41:06;26.50;95.70
9311;DHT22;4694;52.464;13.480;2023-07-13T07:43:32;26.10;95.40
9311;DHT22;4694;52.464;13.480;2023-07-13T07:45:59;26.00;95.60
9311;DHT22;4694;52.464;13.480;2023-07-13T07:48:26;26.00;95.80
9311;DHT22;4694;52.464;13.480;2023-07-13T07:50:52;25.90;95.90
9311;DHT22;4694;52.464;13.480;2023-07-13T07:53:19;26.60;95.50
9311;DHT22;4694;52.464;13.480;2023-07-13T07:55:49;27.30;94.60
9311;DHT22;4694;52.464;13.480;2023-07-13T07:58:16;27.80;93.50
9311;DHT22;4694;52.464;13.480;2023-07-13T08:00:43;28.40;92.70
9311;DHT22;4694;52.464;13.480;2023-07-13T08:03:09;28.90;91.50
9311;DHT22;4694;52.464;13.480;2023-07-13T08:05:36;29.00;90.80
9311;DHT22;4694;52.464;13.480;2023-07-13T08:08:03;28.80;90.20
9311;DHT22;4694;52.464;13.480;2023-07-13T08:10:30;28.40;90.00
9311;DHT22;4694;52.464;13.480;2023-07-13T08:12:58;28.00;90.50
9311;DHT22;4694;52.464;13.480;2023-07-13T08:15:24;27.60;90.90
9311;DHT22;4694;52.464;13.480;2023-07-13T08:17:51;27.20;91.10
9311;DHT22;4694;52.464;13.480;2023-07-13T08:20:18;26.70;91.80
9311;DHT22;4694;52.464;13.480;2023-07-13T08:22:44;26.30;92.30
9311;DHT22;4694;52.464;13.480;2023-07-13T08:25:11;26.00;91.60
9311;DHT22;4694;52.464;13.480;2023-07-13T08:27:38;25.90;92.40
9311;DHT22;4694;52.464;13.480;2023-07-13T08:30:07;25.80;92.80
9311;DHT22;4694;52.464;13.480;2023-07-13T08:32:33;25.80;93.10
9311;DHT22;4694;52.464;13.480;2023-07-13T08:35:00;25.40;92.90
9311;DHT22;4694;52.464;13.480;2023-07-13T08:37:27;25.50;92.70
9311;DHT22;4694;52.464;13.480;2023-07-13T08:39:53;25.70;93.30
9311;DHT22;4694;52.464;13.480;2023-07-13T08:42:31;26.00;92.80
9311;DHT22;4694;52.464;13.480;2023-07-13T08:45:08;26.40;92.70
9311;DHT22;4694;52.464;13.480;2023-07-13T08:47:44;26.60;92.20
9311;DHT22;4694;52.464;13.480;2023-07-13T08:50:14;26.70;91.10
9311;DHT22;4694;52.464;13.480;2023-07-13T08:52:43;26.60;91.20
9311;DHT22;4694;52.464;13.480;2023-07-13T08:55:13;26.60;90.70
9311;DHT22;4694;52.464;13.480;2023-07-13T08:57:44;26.50;90.20
9311;DHT22;4694;52.464;13.480;2023-07-13T09:00:13;26.60;90.40
9311;DHT22;4694;52.464;13.480;2023-07-13T09:02:45;26.80;89.30
9311;DHT22;4694;52.464;13.480;2023-07-13T09:05:15;26.90;89.40
9311;DHT22;4694;52.464;13.480;2023-07-13T09:07:59;27.00;88.70
9311;DHT22;4694;52.464;13.480;2023-07-13T09:10:30;27.30;88.60
9311;DHT22;4694;52.464;13.480;2023-07-13T09:13:16;27.60;89.40
9311;DHT22;4694;52.464;13.480;2023-07-13T09:15:48;28.10;86.50
9311;DHT22;4694;52.464;13.480;2023-07-13T09:18:16;28.60;83.90
9311;DHT22;4694;52.464;13.480;2023-07-13T09:20:48;28.80;82.70
9311;DHT22;4694;52.464;13.480;2023-07-13T09:23:19;28.70;81.90
9311;DHT22;4694;52.464;13.480;2023-07-13T09:25:48;29.10;80.20
9311;DHT22;4694;52.464;13.480;2023-07-13T09:28:22;29.40;80.00
9311;DHT22;4694;52.464;13.480;2023-07-13T09:30:55;29.70;78.70
9311;DHT22;4694;52.464;13.480;2023-07-13T09:33:22;29.70;75.10
9311;DHT22;4694;52.464;13.480;2023-07-13T09:35:50;29.70;75.20
9311;DHT22;4694;52.464;13.480;2023-07-13T09:38:19;30.00;74.70
9311;DHT22;4694;52.464;13.480;2023-07-13T09:40:59;30.90;74.20
9311;DHT22;4694;52.464;13.480;2023-07-13T09:43:27;31.30;70.70
9311;DHT22;4694;52.464;13.480;2023-07-13T09:45:57;31.90;69.20
9311;DHT22;4694;52.464;13.480;2023-07-13T09:48:23;31.40;67.10
9311;DHT22;4694;52.464;13.480;2023-07-13T09:50:54;31.10;66.80
9311;DHT22;4694;52.464;13.480;2023-07-13T09:53:22;31.60;67.00
9311;DHT22;4694;52.464;13.480;2023-07-13T09:55:49;31.60;66.40
9311;DHT22;4694;52.464;13.480;2023-07-13T09:58:18;31.10;65.90
9311;DHT22;4694;52.464;13.480;2023-07-13T10:00:54;31.00;65.10
9311;DHT22;4694;52.464;13.480;2023-07-13T10:03:25;30.60;65.80
9311;DHT22;4694;52.464;13.480;2023-07-13T10:05:54;30.00;65.00
9311;DHT22;4694;52.464;13.480;2023-07-13T10:08:28;30.00;66.50
9311;DHT22;4694;52.464;13.480;2023-07-13T10:11:00;30.30;66.80
9311;DHT22;4694;52.464;13.480;2023-07-13T10:13:34;30.60;65.80
9311;DHT22;4694;52.464;13.480;2023-07-13T10:16:05;30.90;65.60
9311;DHT22;4694;52.464;13.480;2023-07-13T10:18:41;31.60;65.20
9311;DHT22;4694;52.464;13.480;2023-07-13T10:21:13;31.60;63.90
9311;DHT22;4694;52.464;13.480;2023-07-13T10:23:40;31.40;64.00
9311;DHT22;4694;52.464;13.480;2023-07-13T10:26:16;31.10;63.90
9311;DHT22;4694;52.464;13.480;2023-07-13T10:28:47;31.20;62.90
9311;DHT22;4694;52.464;13.480;2023-07-13T10:31:17;31.50;61.90
9311;DHT22;4694;52.464;13.480;2023-07-13T10:33:46;31.60;61.90
9311;DHT22;4694;52.464;13.480;2023-07-13T10:36:20;31.70;60.90
9311;DHT22;4694;52.464;13.480;2023-07-13T10:38:50;32.40;61.20
9311;DHT22;4694;52.464;13.480;2023-07-13T10:41:20;33.00;60.20
9311;DHT22;4694;52.464;13.480;2023-07-13T10:43:50;33.00;58.90
9311;DHT22;4694;52.464;13.480;2023-07-13T10:46:22;32.90;58.80
9311;DHT22;4694;52.464;13.480;2023-07-13T10:48:57;32.70;59.10
9311;DHT22;4694;52.464;13.480;2023-07-13T10:51:25;32.80;59.00
9311;DHT22;4694;52.464;13.480;2023-07-13T10:54:15;32.50;57.50
9311;DHT22;4694;52.464;13.480;2023-07-13T10:56:45;32.30;58.30
9311;DHT22;4694;52.464;13.480;2023-07-13T10:59:15;31.90;58.40
9311;DHT22;4694;52.464;13.480;2023-07-13T11:01:52;31.70;58.90
9311;DHT22;4694;52.464;13.480;2023-07-13T11:04:21;31.70;58.30
9311;DHT22;4694;52.464;13.480;2023-07-13T11:06:53;32.40;57.80
9311;DHT22;4694;52.464;13.480;2023-07-13T11:09:43;33.30;57.70
9311;DHT22;4694;52.464;13.480;2023-07-13T11:12:28;33.80;56.80
9311;DHT22;4694;52.464;13.480;2023-07-13T11:15:33;34.40;55.70
9311;DHT22;4694;52.464;13.480;2023-07-13T11:18:20;34.10;54.10
9311;DHT22;4694;52.464;13.480;2023-07-13T11:20:49;33.90;53.70
9311;DHT22;4694;52.464;13.480;2023-07-13T11:23:21;34.50;54.00
9311;DHT22;4694;52.464;13.480;2023-07-13T11:25:52;35.30;54.10
9311;DHT22;4694;52.464;13.480;2023-07-13T11:28:23;35.20;53.70
9311;DHT22;4694;52.464;13.480;2023-07-13T11:31:15;35.70;53.40
9311;DHT22;4694;52.464;13.480;2023-07-13T11:33:56;35.70;51.10
9311;DHT22;4694;52.464;13.480;2023-07-13T11:36:31;34.80;49.70
9311;DHT22;4694;52.464;13.480;2023-07-13T11:39:03;34.50;50.30
9311;DHT22;4694;52.464;13.480;2023-07-13T11:41:35;34.70;49.60
9311;DHT22;4694;52.464;13.480;2023-07-13T11:44:12;34.60;49.40
9311;DHT22;4694;52.464;13.480;2023-07-13T11:46:38;34.70;49.60
9311;DHT22;4694;52.464;13.480;2023-07-13T11:49:15;35.10;50.00
9311;DHT22;4694;52.464;13.480;2023-07-13T11:51:43;35.20;49.20
9311;DHT22;4694;52.464;13.480;2023-07-13T11:54:29;35.40;49.50
9311;DHT22;4694;52.464;13.480;2023-07-13T11:56:59;36.20;49.60
9311;DHT22;4694;52.464;13.480;2023-07-13T11:59:27;36.70;49.70
9311;DHT22;4694;52.464;13.480;2023-07-13T12:01:57;37.30;49.70
9311;DHT22;4694;52.464;13.480;2023-07-13T12:04:26;37.60;49.10
9311;DHT22;4694;52.464;13.480;2023-07-13T12:07:05;37.20;49.40
9311;DHT22;4694;52.464;13.480;2023-07-13T12:09:34;37.00;49.70
9311;DHT22;4694;52.464;13.480;2023-07-13T12:12:02;37.00;48.60
9311;DHT22;4694;52.464;13.480;2023-07-13T12:14:33;36.50;47.70
9311;DHT22;4694;52.464;13.480;2023-07-13T12:17:00;36.40;48.00
9311;DHT22;4694;52.464;13.480;2023-07-13T12:19:28;35.90;47.60
9311;DHT22;4694;52.464;13.480;2023-07-13T12:21:57;35.80;47.80
9311;DHT22;4694;52.464;13.480;2023-07-13T12:24:25;35.30;47.80
9311;DHT22;4694;52.464;13.480;2023-07-13T12:26:54;34.90;48.80
9311;DHT22;4694;52.464;13.480;2023-07-13T12:29:21;35.10;48.70
9311;DHT22;4694;52.464;13.480;2023-07-13T12:31:49;35.40;48.70
9311;DHT22;4694;52.464;13.480;2023-07-13T12:34:19;35.80;48.80
9311;DHT22;4694;52.464;13.480;2023-07-13T12:36:49;36.20;48.60
9311;DHT22;4694;52.464;13.480;2023-07-13T12:39:19;36.00;47.10
9311;DHT22;4694;52.464;13.480;2023-07-13T12:41:47;35.50;47.60
9311;DHT22;4694;52.464;13.480;2023-07-13T12:44:16;35.50;47.60
9311;DHT22;4694;52.464;13.480;2023-07-13T12:46:56;35.30;48.00
9311;DHT22;4694;52.464;13.480;2023-07-13T12:49:25;36.00;47.80
9311;DHT22;4694;52.464;13.480;2023-07-13T12:51:56;37.00;47.90
9311;DHT22;4694;52.464;13.480;2023-07-13T12:54:28;35.60;47.70
9311;DHT22;4694;52.464;13.480;2023-07-13T12:56:56;35.40;48.20
9311;DHT22;4694;52.464;13.480;2023-07-13T12:59:25;33.70;49.00
9311;DHT22;4694;52.464;13.480;2023-07-13T13:01:53;32.90;50.00
9311;DHT22;4694;52.464;13.480;2023-07-13T13:04:20;32.50;50.80
9311;DHT22;4694;52.464;13.480;2023-07-13T13:06:48;33.10;50.60
9311;DHT22;4694;52.464;13.480;2023-07-13T13:09:17;33.80;49.70
9311;DHT22;4694;52.464;13.480;2023-07-13T13:11:46;34.40;49.60
9311;DHT22;4694;52.464;13.480;2023-07-13T13:14:13;34.70;49.70
9311;DHT22;4694;52.464;13.480;2023-07-13T13:16:46;34.50;49.70
9311;DHT22;4694;52.464;13.480;2023-07-13T13:19:15;34.00;49.10
9311;DHT22;4694;52.464;13.480;2023-07-13T13:21:43;32.90;49.80
9311;DHT22;4694;52.464;13.480;2023-07-13T13:24:11;31.50;50.80
9311;DHT22;4694;52.464;13.480;2023-07-13T13:26:39;31.10;51.30
9311;DHT22;4694;52.464;13.480;2023-07-13T13:29:12;31.40;51.80
9311;DHT22;4694;52.464;13.480;2023-07-13T13:31:40;32.10;51.40
9311;DHT22;4694;52.464;13.480;2023-07-13T13:34:09;32.70;51.10
9311;DHT22;4694;52.464;13.480;2023-07-13T13:36:35;33.00;50.80
9311;DHT22;4694;52.464;13.480;2023-07-13T13:39:04;33.30;50.20
9311;DHT22;4694;52.464;13.480;2023-07-13T13:41:31;33.10;49.90
9311;DHT22;4694;52.464;13.480;2023-07-13T13:43:58;33.10;50.20
9311;DHT22;4694;52.464;13.480;2023-07-13T13:46:26;33.80;50.00
9311;DHT22;4694;52.464;13.480;2023-07-13T13:48:55;34.20;49.40
9311;DHT22;4694;52.464;13.480;2023-07-13T13:51:23;34.20;49.20
9311;DHT22;4694;52.464;13.480;2023-07-13T13:53:50;33.90;49.40
9311;DHT22;4694;52.464;13.480;2023-07-13T13:56:19;33.90;49.80
9311;DHT22;4694;52.464;13.480;2023-07-13T13:58:46;33.80;49.70
9311;DHT22;4694;52.464;13.480;2023-07-13T14:01:16;33.60;49.40
9311;DHT22;4694;52.464;13.480;2023-07-13T14:03:45;33.20;49.60
9311;DHT22;4694;52.464;13.480;2023-07-13T14:06:14;32.60;49.60
9311;DHT22;4694;52.464;13.480;2023-07-13T14:08:42;32.50;49.90
9311;DHT22;4694;52.464;13.480;2023-07-13T14:11:11;31.80;50.30
9311;DHT22;4694;52.464;13.480;2023-07-13T14:13:44;31.70;50.50
9311;DHT22;4694;52.464;13.480;2023-07-13T14:16:15;31.80;51.10
9311;DHT22;4694;52.464;13.480;2023-07-13T14:18:44;32.10;51.00
9311;DHT22;4694;52.464;13.480;2023-07-13T14:21:13;32.20;51.40
9311;DHT22;4694;52.464;13.480;2023-07-13T14:23:40;32.40;51.00
9311;DHT22;4694;52.464;13.480;2023-07-13T14:26:10;32.60;50.70
9311;DHT22;4694;52.464;13.480;2023-07-13T14:28:39;32.60;50.40
9311;DHT22;4694;52.464;13.480;2023-07-13T14:31:08;32.40;50.10
9311;DHT22;4694;52.464;13.480;2023-07-13T14:33:35;31.60;50.00
9311;DHT22;4694;52.464;13.480;2023-07-13T14:36:09;31.20;50.70
9311;DHT22;4694;52.464;13.480;2023-07-13T14:38:43;30.70;51.10
9311;DHT22;4694;52.464;13.480;2023-07-13T14:41:11;30.20;50.60
9311;DHT22;4694;52.464;13.480;2023-07-13T14:43:37;29.70;51.70
9311;DHT22;4694;52.464;13.480;2023-07-13T14:46:04;29.40;52.10
9311;DHT22;4694;52.464;13.480;2023-07-13T14:48:31;29.00;53.30
9311;DHT22;4694;52.464;13.480;2023-07-13T14:50:58;28.60;54.10
9311;DHT22;4694;52.464;13.480;2023-07-13T14:53:27;28.40;54.70
9311;DHT22;4694;52.464;13.480;2023-07-13T14:55:54;28.00;55.20
9311;DHT22;4694;52.464;13.480;2023-07-13T14:58:20;27.90;55.90
9311;DHT22;4694;52.464;13.480;2023-07-13T15:00:47;27.90;55.70
9311;DHT22;4694;52.464;13.480;2023-07-13T15:03:18;27.70;54.60
9311;DHT22;4694;52.464;13.480;2023-07-13T15:05:47;27.40;55.40
9311;DHT22;4694;52.464;13.480;2023-07-13T15:08:13;27.30;55.90
9311;DHT22;4694;52.464;13.480;2023-07-13T15:10:42;27.20;56.00
9311;DHT22;4694;52.464;13.480;2023-07-13T15:13:14;27.10;55.70
9311;DHT22;4694;52.464;13.480;2023-07-13T15:15:43;27.00;55.30
9311;DHT22;4694;52.464;13.480;2023-07-13T15:18:12;27.00;55.20
9311;DHT22;4694;52.464;13.480;2023-07-13T15:20:40;26.90;55.30
9311;DHT22;4694;52.464;13.480;2023-07-13T15:23:09;27.00;55.20
9311;DHT22;4694;52.464;13.480;2023-07-13T15:25:36;27.00;55.50
9311;DHT22;4694;52.464;13.480;2023-07-13T15:28:04;27.10;56.00
9311;DHT22;4694;52.464;13.480;2023-07-13T15:30:35;27.10;55.30
9311;DHT22;4694;52.464;13.480;2023-07-13T15:33:11;26.90;54.70
9311;DHT22;4694;52.464;13.480;2023-07-13T15:35:38;26.70;55.20
9311;DHT22;4694;52.464;13.480;2023-07-13T15:38:13;26.50;55.90
9311;DHT22;4694;52.464;13.480;2023-07-13T15:40:41;26.50;55.50
9311;DHT22;4694;52.464;13.480;2023-07-13T15:43:12;26.40;55.40
9311;DHT22;4694;52.464;13.480;2023-07-13T15:45:40;26.30;55.00
9311;DHT22;4694;52.464;13.480;2023-07-13T15:48:13;26.30;55.50
9311;DHT22;4694;52.464;13.480;2023-07-13T15:50:44;26.30;54.40
9311;DHT22;4694;52.464;13.480;2023-07-13T15:53:13;26.30;55.20
9311;DHT22;4694;52.464;13.480;2023-07-13T15:55:41;26.30;55.40